sensor_id;sensor_type;location;lat;lon;timestamp;P1;durP1;ratioP1;P2;durP2;ratioP2
81834;SDS011;71272;52.166;4.498;2023-12-14T00:01:50;17.03;;;8.10;;
81834;SDS011;71272;52.166;4.498;2023-12-14T00:07:18;15.60;;;7.18;;
81834;SDS011;71272;52.166;4.498;2023-12-14T00:12:46;17.85;;;8.20;;
81834;SDS011;71272;52.166;4.498;2023-12-14T00:18:14;15.80;;;7.32;;
81834;SDS011;71272;52.166;4.498;2023-12-14T00:20:39;25.63;;;9.40;;
81834;SDS011;71272;52.166;4.498;2023-12-14T00:26:07;16.55;;;7.82;;
81834;SDS011;71272;52.166;4.498;2023-12-14T00:31:35;24.33;;;9.70;;
81834;SDS011;71272;52.166;4.498;2023-12-14T00:37:03;22.63;;;10.05;;
81834;SDS011;71272;52.166;4.498;2023-12-14T00:39:28;24.40;;;9.47;;
81834;SDS011;71272;52.166;4.498;2023-12-14T00:44:56;21.35;;;8.57;;
81834;SDS011;71272;52.166;4.498;2023-12-14T00:47:21;21.67;;;8.93;;
81834;SDS011;71272;52.166;4.498;2023-12-14T00:49:46;22.50;;;10.17;;
81834;SDS011;71272;52.166;4.498;2023-12-14T00:52:11;21.40;;;9.30;;
81834;SDS011;71272;52.166;4.498;2023-12-14T00:54:36;19.17;;;9.23;;
81834;SDS011;71272;52.166;4.498;2023-12-14T00:57:01;20.10;;;9.27;;
81834;SDS011;71272;52.166;4.498;2023-12-14T00:59:27;25.50;;;10.97;;
81834;SDS011;71272;52.166;4.498;2023-12-14T01:01:54;29.40;;;10.52;;
81834;SDS011;71272;52.166;4.498;2023-12-14T01:04:19;23.90;;;9.70;;
81834;SDS011;71272;52.166;4.498;2023-12-14T01:06:44;23.07;;;9.37;;
81834;SDS011;71272;52.166;4.498;2023-12-14T01:12:12;21.35;;;7.80;;
81834;SDS011;71272;52.166;4.498;2023-12-14T01:14:38;29.02;;;10.07;;
81834;SDS011;71272;52.166;4.498;2023-12-14T01:17:03;18.67;;;9.43;;
81834;SDS011;71272;52.166;4.498;2023-12-14T01:19:28;22.70;;;10.83;;
81834;SDS011;71272;52.166;4.498;2023-12-14T01:21:54;28.23;;;9.33;;
81834;SDS011;71272;52.166;4.498;2023-12-14T01:24:20;25.15;;;9.77;;
81834;SDS011;71272;52.166;4.498;2023-12-14T01:26:45;21.90;;;9.10;;
81834;SDS011;71272;52.166;4.498;2023-12-14T01:29:10;22.60;;;9.40;;
81834;SDS011;71272;52.166;4.498;2023-12-14T01:31:36;20.73;;;8.32;;
81834;SDS011;71272;52.166;4.498;2023-12-14T01:34:01;30.70;;;8.90;;
81834;SDS011;71272;52.166;4.498;2023-12-14T01:36:26;22.73;;;10.23;;
81834;SDS011;71272;52.166;4.498;2023-12-14T01:38:52;23.73;;;9.37;;
81834;SDS011;71272;52.166;4.498;2023-12-14T01:41:17;26.40;;;9.45;;
81834;SDS011;71272;52.166;4.498;2023-12-14T01:43:42;23.13;;;9.73;;
81834;SDS011;71272;52.166;4.498;2023-12-14T01:46:08;27.87;;;9.00;;
81834;SDS011;71272;52.166;4.498;2023-12-14T01:48:33;21.30;;;11.40;;
81834;SDS011;71272;52.166;4.498;2023-12-14T01:50:58;26.40;;;10.03;;
81834;SDS011;71272;52.166;4.498;2023-12-14T01:56:26;23.65;;;9.80;;
81834;SDS011;71272;52.166;4.498;2023-12-14T01:58:51;20.13;;;9.00;;
81834;SDS011;71272;52.166;4.498;2023-12-14T02:01:33;17.30;;;8.53;;
81834;SDS011;71272;52.166;4.498;2023-12-14T02:07:03;24.63;;;8.95;;
81834;SDS011;71272;52.166;4.498;2023-12-14T02:12:31;20.52;;;10.15;;
81834;SDS011;71272;52.166;4.498;2023-12-14T02:18:01;18.45;;;7.93;;
81834;SDS011;71272;52.166;4.498;2023-12-14T02:20:26;21.73;;;9.00;;
81834;SDS011;71272;52.166;4.498;2023-12-14T02:22:52;19.70;;;8.70;;
81834;SDS011;71272;52.166;4.498;2023-12-14T02:25:18;17.15;;;8.48;;
81834;SDS011;71272;52.166;4.498;2023-12-14T02:30:46;15.20;;;7.80;;
81834;SDS011;71272;52.166;4.498;2023-12-14T02:36:14;22.08;;;8.02;;
81834;SDS011;71272;52.166;4.498;2023-12-14T02:38:39;14.97;;;8.50;;
81834;SDS011;71272;52.166;4.498;2023-12-14T02:41:04;18.80;;;7.80;;
81834;SDS011;71272;52.166;4.498;2023-12-14T02:43:29;18.73;;;8.50;;
81834;SDS011;71272;52.166;4.498;2023-12-14T02:45:54;20.33;;;7.97;;
81834;SDS011;71272;52.166;4.498;2023-12-14T02:51:29;19.67;;;7.53;;
81834;SDS011;71272;52.166;4.498;2023-12-14T02:53:54;18.50;;;7.10;;
81834;SDS011;71272;52.166;4.498;2023-12-14T02:59:24;16.88;;;7.15;;
81834;SDS011;71272;52.166;4.498;2023-12-14T03:01:49;18.03;;;7.13;;
81834;SDS011;71272;52.166;4.498;2023-12-14T03:07:18;18.17;;;6.68;;
81834;SDS011;71272;52.166;4.498;2023-12-14T03:09:44;18.45;;;6.97;;
81834;SDS011;71272;52.166;4.498;2023-12-14T03:12:09;21.10;;;6.70;;
81834;SDS011;71272;52.166;4.498;2023-12-14T03:14:35;14.18;;;5.63;;
81834;SDS011;71272;52.166;4.498;2023-12-14T03:20:03;14.43;;;6.05;;
81834;SDS011;71272;52.166;4.498;2023-12-14T03:25:32;12.05;;;5.55;;
81834;SDS011;71272;52.166;4.498;2023-12-14T03:27:57;16.70;;;6.40;;
81834;SDS011;71272;52.166;4.498;2023-12-14T03:30:22;13.60;;;5.57;;
81834;SDS011;71272;52.166;4.498;2023-12-14T03:32:48;13.70;;;5.87;;
81834;SDS011;71272;52.166;4.498;2023-12-14T03:35:13;20.00;;;6.33;;
81834;SDS011;71272;52.166;4.498;2023-12-14T03:37:38;14.77;;;5.77;;
81834;SDS011;71272;52.166;4.498;2023-12-14T03:40:03;11.53;;;5.53;;
81834;SDS011;71272;52.166;4.498;2023-12-14T03:42:29;15.63;;;6.63;;
81834;SDS011;71272;52.166;4.498;2023-12-14T03:44:54;14.70;;;5.20;;
81834;SDS011;71272;52.166;4.498;2023-12-14T03:47:19;13.87;;;4.73;;
81834;SDS011;71272;52.166;4.498;2023-12-14T03:49:44;10.47;;;5.10;;
81834;SDS011;71272;52.166;4.498;2023-12-14T03:52:10;12.57;;;5.30;;
81834;SDS011;71272;52.166;4.498;2023-12-14T03:54:35;8.97;;;5.50;;
81834;SDS011;71272;52.166;4.498;2023-12-14T03:57:00;13.93;;;4.60;;
81834;SDS011;71272;52.166;4.498;2023-12-14T03:59:25;13.00;;;5.77;;
81834;SDS011;71272;52.166;4.498;2023-12-14T04:01:50;11.43;;;5.10;;
81834;SDS011;71272;52.166;4.498;2023-12-14T04:04:16;14.57;;;5.00;;
81834;SDS011;71272;52.166;4.498;2023-12-14T04:06:41;8.97;;;3.93;;
81834;SDS011;71272;52.166;4.498;2023-12-14T04:09:06;10.00;;;4.20;;
81834;SDS011;71272;52.166;4.498;2023-12-14T04:11:31;9.17;;;4.33;;
81834;SDS011;71272;52.166;4.498;2023-12-14T04:13:56;13.80;;;5.37;;
81834;SDS011;71272;52.166;4.498;2023-12-14T04:16:22;12.10;;;4.87;;
81834;SDS011;71272;52.166;4.498;2023-12-14T04:18:47;9.13;;;4.65;;
81834;SDS011;71272;52.166;4.498;2023-12-14T04:21:12;12.93;;;4.30;;
81834;SDS011;71272;52.166;4.498;2023-12-14T04:23:38;11.40;;;3.67;;
81834;SDS011;71272;52.166;4.498;2023-12-14T04:29:06;7.55;;;3.20;;
81834;SDS011;71272;52.166;4.498;2023-12-14T04:31:33;11.75;;;3.92;;
81834;SDS011;71272;52.166;4.498;2023-12-14T04:33:58;13.88;;;3.30;;
81834;SDS011;71272;52.166;4.498;2023-12-14T04:36:24;8.47;;;3.27;;
81834;SDS011;71272;52.166;4.498;2023-12-14T04:38:49;11.33;;;3.60;;
81834;SDS011;71272;52.166;4.498;2023-12-14T04:41:14;7.77;;;3.23;;
81834;SDS011;71272;52.166;4.498;2023-12-14T04:43:39;11.33;;;3.67;;
81834;SDS011;71272;52.166;4.498;2023-12-14T04:46:05;7.63;;;3.03;;
81834;SDS011;71272;52.166;4.498;2023-12-14T04:48:31;8.02;;;3.35;;
81834;SDS011;71272;52.166;4.498;2023-12-14T04:50:56;9.02;;;3.30;;
81834;SDS011;71272;52.166;4.498;2023-12-14T04:53:21;11.13;;;4.47;;
81834;SDS011;71272;52.166;4.498;2023-12-14T04:55:47;8.63;;;3.63;;
81834;SDS011;71272;52.166;4.498;2023-12-14T05:01:15;7.57;;;3.95;;
81834;SDS011;71272;52.166;4.498;2023-12-14T05:06:43;11.30;;;3.95;;
81834;SDS011;71272;52.166;4.498;2023-12-14T05:12:10;8.43;;;3.90;;
81834;SDS011;71272;52.166;4.498;2023-12-14T05:14:36;8.00;;;4.43;;
81834;SDS011;71272;52.166;4.498;2023-12-14T05:17:01;8.57;;;4.23;;
81834;SDS011;71272;52.166;4.498;2023-12-14T05:19:26;8.53;;;3.93;;
81834;SDS011;71272;52.166;4.498;2023-12-14T05:21:51;10.87;;;4.50;;
81834;SDS011;71272;52.166;4.498;2023-12-14T05:26:44;10.30;;;3.60;;
81834;SDS011;71272;52.166;4.498;2023-12-14T05:29:09;8.83;;;3.70;;
81834;SDS011;71272;52.166;4.498;2023-12-14T05:31:35;11.83;;;4.33;;
81834;SDS011;71272;52.166;4.498;2023-12-14T05:34:00;11.10;;;4.80;;
81834;SDS011;71272;52.166;4.498;2023-12-14T05:36:25;8.83;;;5.13;;
81834;SDS011;71272;52.166;4.498;2023-12-14T05:41:53;9.27;;;4.38;;
81834;SDS011;71272;52.166;4.498;2023-12-14T05:44:18;8.93;;;4.67;;
81834;SDS011;71272;52.166;4.498;2023-12-14T05:49:46;9.02;;;4.10;;
81834;SDS011;71272;52.166;4.498;2023-12-14T05:52:11;12.07;;;3.90;;
81834;SDS011;71272;52.166;4.498;2023-12-14T05:54:36;7.90;;;3.83;;
81834;SDS011;71272;52.166;4.498;2023-12-14T05:57:02;15.02;;;5.25;;
81834;SDS011;71272;52.166;4.498;2023-12-14T05:59:27;10.00;;;4.17;;
81834;SDS011;71272;52.166;4.498;2023-12-14T06:01:58;12.33;;;5.83;;
81834;SDS011;71272;52.166;4.498;2023-12-14T06:04:24;14.25;;;4.05;;
81834;SDS011;71272;52.166;4.498;2023-12-14T06:06:49;8.43;;;4.20;;
81834;SDS011;71272;52.166;4.498;2023-12-14T06:09:14;11.67;;;4.97;;
81834;SDS011;71272;52.166;4.498;2023-12-14T06:11:40;10.30;;;4.47;;
81834;SDS011;71272;52.166;4.498;2023-12-14T06:14:05;17.50;;;5.03;;
81834;SDS011;71272;52.166;4.498;2023-12-14T06:16:30;10.80;;;4.60;;
81834;SDS011;71272;52.166;4.498;2023-12-14T06:18:55;8.60;;;4.40;;
81834;SDS011;71272;52.166;4.498;2023-12-14T06:21:20;11.93;;;5.63;;
81834;SDS011;71272;52.166;4.498;2023-12-14T06:23:46;11.50;;;5.33;;
81834;SDS011;71272;52.166;4.498;2023-12-14T06:26:11;12.20;;;4.87;;
81834;SDS011;71272;52.166;4.498;2023-12-14T06:31:39;9.55;;;4.60;;
81834;SDS011;71272;52.166;4.498;2023-12-14T06:37:07;9.75;;;4.68;;
81834;SDS011;71272;52.166;4.498;2023-12-14T06:39:32;10.05;;;4.90;;
81834;SDS011;71272;52.166;4.498;2023-12-14T06:41:58;14.43;;;6.30;;
81834;SDS011;71272;52.166;4.498;2023-12-14T06:47:26;10.38;;;5.10;;
81834;SDS011;71272;52.166;4.498;2023-12-14T06:52:53;14.32;;;5.35;;
81834;SDS011;71272;52.166;4.498;2023-12-14T06:55:19;14.13;;;7.10;;
81834;SDS011;71272;52.166;4.498;2023-12-14T06:57:44;12.43;;;6.20;;
81834;SDS011;71272;52.166;4.498;2023-12-14T07:03:14;10.88;;;5.57;;
81834;SDS011;71272;52.166;4.498;2023-12-14T07:05:39;12.70;;;5.93;;
81834;SDS011;71272;52.166;4.498;2023-12-14T07:11:07;9.13;;;4.93;;
81834;SDS011;71272;52.166;4.498;2023-12-14T07:16:36;12.32;;;5.80;;
81834;SDS011;71272;52.166;4.498;2023-12-14T07:19:01;15.63;;;5.53;;
81834;SDS011;71272;52.166;4.498;2023-12-14T07:24:29;11.80;;;5.93;;
81834;SDS011;71272;52.166;4.498;2023-12-14T07:26:54;8.97;;;5.00;;
81834;SDS011;71272;52.166;4.498;2023-12-14T07:29:19;15.13;;;5.17;;
81834;SDS011;71272;52.166;4.498;2023-12-14T07:34:47;9.30;;;4.70;;
81834;SDS011;71272;52.166;4.498;2023-12-14T07:37:13;11.50;;;5.13;;
81834;SDS011;71272;52.166;4.498;2023-12-14T07:39:38;12.65;;;5.63;;
81834;SDS011;71272;52.166;4.498;2023-12-14T07:42:03;11.80;;;4.87;;
81834;SDS011;71272;52.166;4.498;2023-12-14T07:44:28;12.10;;;5.87;;
81834;SDS011;71272;52.166;4.498;2023-12-14T07:46:55;11.90;;;6.03;;
81834;SDS011;71272;52.166;4.498;2023-12-14T07:49:20;11.05;;;5.60;;
81834;SDS011;71272;52.166;4.498;2023-12-14T07:51:47;11.63;;;6.32;;
81834;SDS011;71272;52.166;4.498;2023-12-14T07:54:12;9.13;;;4.80;;
81834;SDS011;71272;52.166;4.498;2023-12-14T07:56:37;8.87;;;4.93;;
81834;SDS011;71272;52.166;4.498;2023-12-14T08:02:05;14.15;;;5.18;;
81834;SDS011;71272;52.166;4.498;2023-12-14T08:07:33;10.15;;;5.07;;
81834;SDS011;71272;52.166;4.498;2023-12-14T08:13:01;9.35;;;4.68;;
81834;SDS011;71272;52.166;4.498;2023-12-14T08:15:26;13.13;;;6.43;;
81834;SDS011;71272;52.166;4.498;2023-12-14T08:17:52;17.67;;;6.73;;
81834;SDS011;71272;52.166;4.498;2023-12-14T08:23:19;14.57;;;7.00;;
81834;SDS011;71272;52.166;4.498;2023-12-14T08:28:47;15.13;;;6.35;;
81834;SDS011;71272;52.166;4.498;2023-12-14T08:34:15;17.63;;;6.88;;
81834;SDS011;71272;52.166;4.498;2023-12-14T08:36:40;14.77;;;6.20;;
81834;SDS011;71272;52.166;4.498;2023-12-14T08:42:08;14.75;;;6.72;;
81834;SDS011;71272;52.166;4.498;2023-12-14T08:47:38;14.88;;;7.05;;
81834;SDS011;71272;52.166;4.498;2023-12-14T08:53:06;13.25;;;5.90;;
81834;SDS011;71272;52.166;4.498;2023-12-14T08:55:32;8.80;;;5.28;;
81834;SDS011;71272;52.166;4.498;2023-12-14T08:57:57;10.23;;;5.83;;
81834;SDS011;71272;52.166;4.498;2023-12-14T09:00:22;12.20;;;5.73;;
81834;SDS011;71272;52.166;4.498;2023-12-14T09:02:48;15.10;;;6.03;;
81834;SDS011;71272;52.166;4.498;2023-12-14T09:05:14;10.30;;;5.63;;
81834;SDS011;71272;52.166;4.498;2023-12-14T09:07:40;11.82;;;5.70;;
81834;SDS011;71272;52.166;4.498;2023-12-14T09:13:08;11.80;;;5.28;;
81834;SDS011;71272;52.166;4.498;2023-12-14T09:15:33;11.53;;;5.73;;
81834;SDS011;71272;52.166;4.498;2023-12-14T09:21:01;13.25;;;5.75;;
81834;SDS011;71272;52.166;4.498;2023-12-14T09:23:26;16.10;;;6.13;;
81834;SDS011;71272;52.166;4.498;2023-12-14T09:28:54;10.23;;;5.35;;
81834;SDS011;71272;52.166;4.498;2023-12-14T09:31:19;15.40;;;6.33;;
81834;SDS011;71272;52.166;4.498;2023-12-14T09:36:47;15.43;;;7.07;;
81834;SDS011;71272;52.166;4.498;2023-12-14T09:39:12;16.20;;;6.87;;
81834;SDS011;71272;52.166;4.498;2023-12-14T09:41:39;14.57;;;6.90;;
81834;SDS011;71272;52.166;4.498;2023-12-14T09:44:07;12.63;;;6.68;;
81834;SDS011;71272;52.166;4.498;2023-12-14T09:49:35;14.15;;;6.07;;
81834;SDS011;71272;52.166;4.498;2023-12-14T09:52:00;13.77;;;7.00;;
81834;SDS011;71272;52.166;4.498;2023-12-14T09:57:28;15.07;;;7.45;;
81834;SDS011;71272;52.166;4.498;2023-12-14T09:59:54;17.33;;;7.67;;
81834;SDS011;71272;52.166;4.498;2023-12-14T10:02:19;17.58;;;8.00;;
81834;SDS011;71272;52.166;4.498;2023-12-14T10:04:45;23.15;;;8.25;;
81834;SDS011;71272;52.166;4.498;2023-12-14T10:07:11;14.70;;;8.07;;
81834;SDS011;71272;52.166;4.498;2023-12-14T10:09:37;15.13;;;8.07;;
81834;SDS011;71272;52.166;4.498;2023-12-14T10:12:06;13.70;;;7.25;;
81834;SDS011;71272;52.166;4.498;2023-12-14T10:14:31;17.60;;;7.80;;
81834;SDS011;71272;52.166;4.498;2023-12-14T10:16:57;14.00;;;7.20;;
81834;SDS011;71272;52.166;4.498;2023-12-14T10:19:22;15.90;;;7.13;;
81834;SDS011;71272;52.166;4.498;2023-12-14T10:21:48;16.33;;;7.87;;
81834;SDS011;71272;52.166;4.498;2023-12-14T10:24:14;14.85;;;6.43;;
81834;SDS011;71272;52.166;4.498;2023-12-14T10:29:42;15.27;;;7.45;;
81834;SDS011;71272;52.166;4.498;2023-12-14T10:35:12;12.70;;;6.57;;
81834;SDS011;71272;52.166;4.498;2023-12-14T10:37:38;14.20;;;7.55;;
81834;SDS011;71272;52.166;4.498;2023-12-14T10:43:06;12.43;;;5.95;;
81834;SDS011;71272;52.166;4.498;2023-12-14T10:45:32;17.63;;;6.07;;
81834;SDS011;71272;52.166;4.498;2023-12-14T10:48:00;12.15;;;6.80;;
81834;SDS011;71272;52.166;4.498;2023-12-14T10:50:29;17.42;;;6.70;;
81834;SDS011;71272;52.166;4.498;2023-12-14T10:52:55;14.23;;;5.97;;
81834;SDS011;71272;52.166;4.498;2023-12-14T10:57:56;16.55;;;6.55;;
81834;SDS011;71272;52.166;4.498;2023-12-14T11:00:22;11.77;;;5.95;;
81834;SDS011;71272;52.166;4.498;2023-12-14T11:02:47;15.53;;;6.87;;
81834;SDS011;71272;52.166;4.498;2023-12-14T11:05:13;11.17;;;6.30;;
81834;SDS011;71272;52.166;4.498;2023-12-14T11:10:52;16.50;;;6.22;;
81834;SDS011;71272;52.166;4.498;2023-12-14T11:13:17;16.42;;;6.22;;
81834;SDS011;71272;52.166;4.498;2023-12-14T11:15:47;14.17;;;6.23;;
81834;SDS011;71272;52.166;4.498;2023-12-14T11:21:18;15.30;;;6.05;;
81834;SDS011;71272;52.166;4.498;2023-12-14T11:23:44;12.02;;;6.30;;
81834;SDS011;71272;52.166;4.498;2023-12-14T11:26:09;12.33;;;5.37;;
81834;SDS011;71272;52.166;4.498;2023-12-14T11:28:36;12.52;;;6.30;;
81834;SDS011;71272;52.166;4.498;2023-12-14T11:34:04;10.25;;;4.63;;
81834;SDS011;71272;52.166;4.498;2023-12-14T11:39:34;12.55;;;5.03;;
81834;SDS011;71272;52.166;4.498;2023-12-14T11:42:01;13.55;;;6.35;;
81834;SDS011;71272;52.166;4.498;2023-12-14T11:44:27;11.30;;;5.47;;
81834;SDS011;71272;52.166;4.498;2023-12-14T11:46:52;15.23;;;5.30;;
81834;SDS011;71272;52.166;4.498;2023-12-14T11:52:21;9.73;;;5.43;;
81834;SDS011;71272;52.166;4.498;2023-12-14T11:57:49;11.30;;;6.35;;
81834;SDS011;71272;52.166;4.498;2023-12-14T12:00:14;14.17;;;5.83;;
81834;SDS011;71272;52.166;4.498;2023-12-14T12:05:46;15.57;;;6.15;;
81834;SDS011;71272;52.166;4.498;2023-12-14T12:08:12;15.32;;;6.97;;
81834;SDS011;71272;52.166;4.498;2023-12-14T12:10:38;14.35;;;5.97;;
81834;SDS011;71272;52.166;4.498;2023-12-14T12:13:04;12.00;;;6.25;;
81834;SDS011;71272;52.166;4.498;2023-12-14T12:15:32;10.50;;;5.10;;
81834;SDS011;71272;52.166;4.498;2023-12-14T12:17:58;13.82;;;5.68;;
81834;SDS011;71272;52.166;4.498;2023-12-14T12:20:23;11.23;;;5.70;;
81834;SDS011;71272;52.166;4.498;2023-12-14T12:22:48;13.63;;;6.10;;
81834;SDS011;71272;52.166;4.498;2023-12-14T12:28:16;11.15;;;6.18;;
81834;SDS011;71272;52.166;4.498;2023-12-14T12:33:44;11.60;;;5.30;;
81834;SDS011;71272;52.166;4.498;2023-12-14T12:36:09;13.93;;;6.50;;
81834;SDS011;71272;52.166;4.498;2023-12-14T12:38:35;18.08;;;6.97;;
81834;SDS011;71272;52.166;4.498;2023-12-14T12:41:05;17.05;;;6.90;;
81834;SDS011;71272;52.166;4.498;2023-12-14T12:43:30;12.00;;;6.30;;
81834;SDS011;71272;52.166;4.498;2023-12-14T12:45:55;14.27;;;7.03;;
81834;SDS011;71272;52.166;4.498;2023-12-14T12:51:24;14.65;;;5.88;;
81834;SDS011;71272;52.166;4.498;2023-12-14T12:56:54;13.65;;;5.45;;
81834;SDS011;71272;52.166;4.498;2023-12-14T12:59:19;14.73;;;7.30;;
81834;SDS011;71272;52.166;4.498;2023-12-14T13:01:44;15.03;;;6.57;;
81834;SDS011;71272;52.166;4.498;2023-12-14T13:07:13;12.52;;;5.93;;
81834;SDS011;71272;52.166;4.498;2023-12-14T13:12:41;10.93;;;6.18;;
81834;SDS011;71272;52.166;4.498;2023-12-14T13:15:07;14.38;;;6.88;;
81834;SDS011;71272;52.166;4.498;2023-12-14T13:17:32;14.20;;;6.55;;
81834;SDS011;71272;52.166;4.498;2023-12-14T13:19:57;13.27;;;6.73;;
81834;SDS011;71272;52.166;4.498;2023-12-14T13:22:22;15.77;;;7.40;;
81834;SDS011;71272;52.166;4.498;2023-12-14T13:24:48;11.27;;;6.03;;
81834;SDS011;71272;52.166;4.498;2023-12-14T13:27:14;11.38;;;6.20;;
81834;SDS011;71272;52.166;4.498;2023-12-14T13:29:39;12.77;;;6.40;;
81834;SDS011;71272;52.166;4.498;2023-12-14T13:32:06;19.02;;;6.30;;
81834;SDS011;71272;52.166;4.498;2023-12-14T13:34:31;16.23;;;6.47;;
81834;SDS011;71272;52.166;4.498;2023-12-14T13:36:58;13.43;;;6.47;;
81834;SDS011;71272;52.166;4.498;2023-12-14T13:39:25;14.63;;;7.78;;
81834;SDS011;71272;52.166;4.498;2023-12-14T13:41:50;14.13;;;6.20;;
81834;SDS011;71272;52.166;4.498;2023-12-14T13:44:16;14.97;;;7.13;;
81834;SDS011;71272;52.166;4.498;2023-12-14T13:49:44;16.95;;;6.97;;
81834;SDS011;71272;52.166;4.498;2023-12-14T13:52:09;13.97;;;7.07;;
81834;SDS011;71272;52.166;4.498;2023-12-14T13:54:34;18.47;;;7.80;;
81834;SDS011;71272;52.166;4.498;2023-12-14T14:00:04;20.85;;;7.90;;
81834;SDS011;71272;52.166;4.498;2023-12-14T14:02:29;16.48;;;7.57;;
81834;SDS011;71272;52.166;4.498;2023-12-14T14:04:54;18.37;;;7.97;;
81834;SDS011;71272;52.166;4.498;2023-12-14T14:07:20;16.33;;;8.43;;
81834;SDS011;71272;52.166;4.498;2023-12-14T14:12:49;13.30;;;6.50;;
81834;SDS011;71272;52.166;4.498;2023-12-14T14:18:18;14.50;;;7.10;;
81834;SDS011;71272;52.166;4.498;2023-12-14T14:20:43;16.13;;;6.77;;
81834;SDS011;71272;52.166;4.498;2023-12-14T14:23:08;16.93;;;6.30;;
81834;SDS011;71272;52.166;4.498;2023-12-14T14:25:34;16.05;;;7.78;;
81834;SDS011;71272;52.166;4.498;2023-12-14T14:28:00;14.45;;;8.13;;
81834;SDS011;71272;52.166;4.498;2023-12-14T14:30:25;15.63;;;6.90;;
81834;SDS011;71272;52.166;4.498;2023-12-14T14:35:53;16.15;;;8.52;;
81834;SDS011;71272;52.166;4.498;2023-12-14T14:41:21;16.95;;;8.40;;
81834;SDS011;71272;52.166;4.498;2023-12-14T14:43:46;16.03;;;7.30;;
81834;SDS011;71272;52.166;4.498;2023-12-14T14:46:12;13.43;;;6.17;;
81834;SDS011;71272;52.166;4.498;2023-12-14T14:48:37;11.53;;;6.13;;
81834;SDS011;71272;52.166;4.498;2023-12-14T14:51:02;15.53;;;7.13;;
81834;SDS011;71272;52.166;4.498;2023-12-14T14:53:28;13.32;;;6.78;;
81834;SDS011;71272;52.166;4.498;2023-12-14T14:55:54;13.32;;;6.72;;
81834;SDS011;71272;52.166;4.498;2023-12-14T14:58:20;14.60;;;6.47;;
81834;SDS011;71272;52.166;4.498;2023-12-14T15:00:45;15.40;;;7.23;;
81834;SDS011;71272;52.166;4.498;2023-12-14T15:03:12;13.75;;;7.18;;
81834;SDS011;71272;52.166;4.498;2023-12-14T15:05:38;20.38;;;5.68;;
81834;SDS011;71272;52.166;4.498;2023-12-14T15:11:05;14.05;;;6.30;;
81834;SDS011;71272;52.166;4.498;2023-12-14T15:13:34;18.23;;;8.38;;
81834;SDS011;71272;52.166;4.498;2023-12-14T15:19:02;12.48;;;5.60;;
81834;SDS011;71272;52.166;4.498;2023-12-14T15:21:28;10.13;;;5.55;;
81834;SDS011;71272;52.166;4.498;2023-12-14T15:23:53;16.10;;;5.70;;
81834;SDS011;71272;52.166;4.498;2023-12-14T15:26:19;13.20;;;4.55;;
81834;SDS011;71272;52.166;4.498;2023-12-14T15:28:44;12.15;;;4.18;;
81834;SDS011;71272;52.166;4.498;2023-12-14T15:31:09;11.93;;;4.97;;
81834;SDS011;71272;52.166;4.498;2023-12-14T15:33:35;16.07;;;6.03;;
81834;SDS011;71272;52.166;4.498;2023-12-14T15:39:02;7.85;;;1.80;;
81834;SDS011;71272;52.166;4.498;2023-12-14T15:41:29;6.07;;;1.75;;
81834;SDS011;71272;52.166;4.498;2023-12-14T15:43:54;8.27;;;1.63;;
81834;SDS011;71272;52.166;4.498;2023-12-14T15:49:22;3.60;;;1.25;;
81834;SDS011;71272;52.166;4.498;2023-12-14T15:54:49;7.80;;;1.50;;
81834;SDS011;71272;52.166;4.498;2023-12-14T15:57:15;3.43;;;1.30;;
81834;SDS011;71272;52.166;4.498;2023-12-14T15:59:40;6.03;;;1.90;;
81834;SDS011;71272;52.166;4.498;2023-12-14T16:05:08;4.07;;;1.98;;
81834;SDS011;71272;52.166;4.498;2023-12-14T16:10:36;3.70;;;1.40;;
81834;SDS011;71272;52.166;4.498;2023-12-14T16:13:01;6.15;;;1.77;;
81834;SDS011;71272;52.166;4.498;2023-12-14T16:18:30;5.05;;;1.85;;
81834;SDS011;71272;52.166;4.498;2023-12-14T16:20:55;4.77;;;1.60;;
81834;SDS011;71272;52.166;4.498;2023-12-14T16:23:20;4.40;;;1.53;;
81834;SDS011;71272;52.166;4.498;2023-12-14T16:25:45;4.07;;;1.70;;
81834;SDS011;71272;52.166;4.498;2023-12-14T16:28:10;3.37;;;1.57;;
81834;SDS011;71272;52.166;4.498;2023-12-14T16:30:36;5.07;;;1.50;;
81834;SDS011;71272;52.166;4.498;2023-12-14T16:33:01;10.07;;;2.40;;
81834;SDS011;71272;52.166;4.498;2023-12-14T16:38:29;6.85;;;1.60;;
81834;SDS011;71272;52.166;4.498;2023-12-14T16:40:54;7.37;;;1.60;;
81834;SDS011;71272;52.166;4.498;2023-12-14T16:46:28;7.10;;;1.77;;
81834;SDS011;71272;52.166;4.498;2023-12-14T16:48:54;6.07;;;1.60;;
81834;SDS011;71272;52.166;4.498;2023-12-14T16:51:19;8.13;;;2.23;;
81834;SDS011;71272;52.166;4.498;2023-12-14T16:53:45;10.85;;;3.50;;
81834;SDS011;71272;52.166;4.498;2023-12-14T16:59:14;8.00;;;2.40;;
81834;SDS011;71272;52.166;4.498;2023-12-14T17:04:42;7.45;;;2.17;;
81834;SDS011;71272;52.166;4.498;2023-12-14T17:07:08;10.82;;;3.15;;
81834;SDS011;71272;52.166;4.498;2023-12-14T17:12:36;4.82;;;2.05;;
81834;SDS011;71272;52.166;4.498;2023-12-14T17:18:03;6.13;;;2.42;;
81834;SDS011;71272;52.166;4.498;2023-12-14T17:23:32;5.10;;;2.10;;
81834;SDS011;71272;52.166;4.498;2023-12-14T17:28:59;9.65;;;2.60;;
81834;SDS011;71272;52.166;4.498;2023-12-14T17:31:25;10.97;;;2.63;;
81834;SDS011;71272;52.166;4.498;2023-12-14T17:33:50;6.78;;;3.08;;
81834;SDS011;71272;52.166;4.498;2023-12-14T17:36:15;9.82;;;2.67;;
81834;SDS011;71272;52.166;4.498;2023-12-14T17:38:41;8.77;;;2.37;;
81834;SDS011;71272;52.166;4.498;2023-12-14T17:41:10;7.28;;;2.65;;
81834;SDS011;71272;52.166;4.498;2023-12-14T17:43:37;7.20;;;2.97;;
81834;SDS011;71272;52.166;4.498;2023-12-14T17:46:02;5.53;;;2.63;;
81834;SDS011;71272;52.166;4.498;2023-12-14T17:48:28;6.28;;;2.58;;
81834;SDS011;71272;52.166;4.498;2023-12-14T17:50:53;6.93;;;3.08;;
81834;SDS011;71272;52.166;4.498;2023-12-14T17:53:20;8.65;;;2.47;;
81834;SDS011;71272;52.166;4.498;2023-12-14T17:55:45;6.27;;;2.60;;
81834;SDS011;71272;52.166;4.498;2023-12-14T17:58:10;7.63;;;3.03;;
81834;SDS011;71272;52.166;4.498;2023-12-14T18:00:35;8.63;;;3.50;;
81834;SDS011;71272;52.166;4.498;2023-12-14T18:03:01;10.60;;;3.33;;
81834;SDS011;71272;52.166;4.498;2023-12-14T18:05:28;7.55;;;3.03;;
81834;SDS011;71272;52.166;4.498;2023-12-14T18:07:54;8.97;;;3.30;;
81834;SDS011;71272;52.166;4.498;2023-12-14T18:10:19;10.87;;;2.97;;
81834;SDS011;71272;52.166;4.498;2023-12-14T18:12:44;6.17;;;2.50;;
81834;SDS011;71272;52.166;4.498;2023-12-14T18:15:10;12.37;;;3.13;;
81834;SDS011;71272;52.166;4.498;2023-12-14T18:17:35;6.72;;;2.50;;
81834;SDS011;71272;52.166;4.498;2023-12-14T18:20:01;10.30;;;2.60;;
81834;SDS011;71272;52.166;4.498;2023-12-14T18:25:29;15.95;;;3.47;;
81834;SDS011;71272;52.166;4.498;2023-12-14T18:27:54;9.83;;;3.23;;
81834;SDS011;71272;52.166;4.498;2023-12-14T18:30:24;6.35;;;2.88;;
81834;SDS011;71272;52.166;4.498;2023-12-14T18:32:49;8.75;;;2.67;;
81834;SDS011;71272;52.166;4.498;2023-12-14T18:35:16;11.88;;;3.83;;
81834;SDS011;71272;52.166;4.498;2023-12-14T18:37:41;11.43;;;4.37;;
81834;SDS011;71272;52.166;4.498;2023-12-14T18:40:06;10.40;;;3.33;;
81834;SDS011;71272;52.166;4.498;2023-12-14T18:45:35;9.13;;;3.35;;
81834;SDS011;71272;52.166;4.498;2023-12-14T18:51:04;6.93;;;3.10;;
81834;SDS011;71272;52.166;4.498;2023-12-14T18:53:29;6.67;;;2.73;;
81834;SDS011;71272;52.166;4.498;2023-12-14T18:55:55;6.43;;;2.93;;
81834;SDS011;71272;52.166;4.498;2023-12-14T19:01:23;9.65;;;3.75;;
81834;SDS011;71272;52.166;4.498;2023-12-14T19:06:51;12.15;;;3.08;;
81834;SDS011;71272;52.166;4.498;2023-12-14T19:09:16;6.77;;;3.33;;
81834;SDS011;71272;52.166;4.498;2023-12-14T19:11:41;10.83;;;3.57;;
81834;SDS011;71272;52.166;4.498;2023-12-14T19:14:06;10.30;;;4.90;;